Chewelah, WA (99109)

7:03 AM PST on January 30, 2015 (GMT -0800)
405 E. Lincoln | Change Station
CLOSE
Current Station
Personal Weather Station
Location: Chewelah, WA
Elevation: 1671 ft
Nearby Weather Stations

Elev 1671 ft 48.28 °N, 117.71 °W | Updated 2 minutes ago

Overcast
Overcast
32.9 °F
Feels Like 33 °F
N
0.0
Wind Variable Wind from N/A

Today
High -- | Low -- °F
--% Chance of Precip.
Yesterday
High -- | Low -- °F
Precip. -- in
7:22 AM 4:46 PM
Waxing Gibbous, 83% visible
Pressure 30.45 in
Visibility 3.0 miles
Clouds Overcast 200 ft
Windchill 33 °F
Dew Point 31 °F
Humidity 92%
Rainfall 0.00 in
Snow Depth Not available.
UV 0 out of 12
Pollen .40 out of 12
Air Quality Not available.
Flu Activity Not available.
METAR KDEW 301453Z AUTO 05003KT 3SM BR OVC002 M02/M03 A3037 RMK AO2 SLP312 T10221028 58000

More Conditions Fewer Conditions

Pressure 30.45 in
Visibility 3.0 miles
Clouds Overcast 200 ft
Windchill 33 °F
Dew Point 31 °F
Humidity 92%
Rainfall 0.00 in
Snow Depth Not available.
UV 0 out of 12
Pollen .40 out of 12
Air Quality Not available.
Flu Activity Not available.
METAR KDEW 301453Z AUTO 05003KT 3SM BR OVC002 M02/M03 A3037 RMK AO2 SLP312 T10221028 58000

More Conditions Fewer Conditions

10-Day Weather Forecast

Almanac

Astronomy

Jan. 30, 2015 Rise Set
Actual Time
Civil Twilight
Nautical Twilight
Astronomical Twilight
Moon
Length of Visible Light
Length of Day
Tomorrow will be .
, % of the Moon is Illuminated

Today's Extremes

State Highs State Lows

Community

WunderPhotos

Upload Photos

1,791,779 photos uploaded!

WunderBlogs® & News

Nearby

Air Quality

  Air Quality AQ Index Pollutant
Not available.

Snow Depth

Station Depth Elevation

Earthquake Activity

City Distance Mag. Time & Date
Minimum magnitude displayed is 2.5.

Coastal Water Temperatures

Place Temperature

Nearby Weather Stations